EDHK/KEL METAR and TAF weather

Enter ICAO airport designator
Station Type Date Time Source
EDHK METAR 2020/10/20 17:50 UTC NOAA

EDHK 201750Z AUTO 20007KT 170V230 9999 // BKN068/// BKN077/// OVC090/// 09/08 Q1007


Station Type Date Time Source
EDHK Decoded METAR 2020/10/20 17:50 UTC NOAA

Kiel / Holtenau Civilian, Germany (EDHK) 54-23N 010-10E
Oct 20, 2020 - 01:50 PM EDT / 2020.10.20 1750 UTC
Wind: from the SSW (200 degrees) at 8 MPH (7 KT) (direction variable):0
Visibility: greater than 7 mile(s):0
Sky conditions: overcast
Temperature: 48 F (9 C)
Dew Point: 46 F (8 C)
Relative Humidity: 93%
Pressure (altimeter): 29.74 in. Hg (1007 hPa)
ob: EDHK 201750Z AUTO 20007KT 170V230 9999 // BKN068/// BKN077/// OVC090/// 09/08 Q1007
cycle: 18

Station Type Date Time Source
EDHK TAF 2013/08/11 06:39 UTC NOAA

TAF EDHK 110633Z 1106/1118 24005KT 9999 SCT030
BECMG 1106/1109 25010KT
TEMPO 1106/1118 27015G25KT 4500 SHRA BKN012CB

Example: see airport list